createdAt,value
2022-10-26T00:04:02.520Z,100688.25
2022-10-26T00:09:05.199Z,100657.97
2022-10-26T00:14:07.870Z,100675.72
2022-10-26T00:19:10.585Z,100681.25
2022-10-26T00:24:13.645Z,100679.97
2022-10-26T00:29:17.443Z,100681.75
2022-10-26T00:34:20.169Z,100644.84
2022-10-26T00:39:22.918Z,100665.97
2022-10-26T00:44:43.904Z,100688.47
2022-10-26T00:49:48.586Z,100679.88
2022-10-26T00:54:52.215Z,100688.00
2022-10-26T00:59:55.837Z,100701.53
2022-10-26T01:04:58.714Z,100649.38
2022-10-26T01:10:02.080Z,100669.91
2022-10-26T01:15:06.518Z,100664.13
2022-10-26T01:20:39.808Z,100681.38
2022-10-26T01:25:48.483Z,100684.38
2022-10-26T01:30:51.589Z,100686.16
2022-10-26T01:36:03.599Z,100662.66
2022-10-26T01:41:34.278Z,100707.28
2022-10-26T01:46:42.961Z,100695.50
2022-10-26T01:51:47.832Z,100695.25
2022-10-26T01:56:57.231Z,100685.09
2022-10-26T02:02:18.043Z,100687.97
2022-10-26T02:07:37.471Z,100690.97
2022-10-26T02:12:59.794Z,100664.94
2022-10-26T02:18:32.907Z,100681.38
2022-10-26T02:23:38.009Z,100659.13
2022-10-26T02:28:44.286Z,100690.44
2022-10-26T02:38:58.420Z,100692.56
2022-10-26T02:44:25.436Z,100688.03
2022-10-26T02:49:28.768Z,100648.06
2022-10-26T02:54:35.841Z,100687.31
2022-10-26T02:59:42.574Z,100690.16
2022-10-26T03:04:45.444Z,100661.25
2022-10-26T03:09:48.114Z,100683.66
2022-10-26T03:14:50.795Z,100681.09
2022-10-26T03:19:53.509Z,100679.50
2022-10-26T03:24:56.329Z,100663.66
2022-10-26T03:29:59.069Z,100685.09
2022-10-26T03:35:01.758Z,100677.56
2022-10-26T03:40:05.646Z,100669.06
2022-10-26T03:45:09.448Z,100680.09
2022-10-26T03:50:13.260Z,100681.53
2022-10-26T03:55:16.289Z,100676.59
2022-10-26T04:00:19.347Z,100670.34
2022-10-26T04:05:22.663Z,100671.41
2022-10-26T04:10:26.962Z,100629.78
2022-10-26T04:15:29.770Z,100657.69
2022-10-26T04:20:34.528Z,100661.22
2022-10-26T04:25:37.238Z,100651.03
2022-10-26T04:30:40.471Z,100647.38
2022-10-26T04:35:43.461Z,100643.06
2022-10-26T04:40:46.259Z,100640.16
2022-10-26T04:45:49.034Z,100649.41
2022-10-26T04:50:51.725Z,100638.25
2022-10-26T04:56:01.406Z,100634.91
2022-10-26T05:01:04.299Z,100628.88
2022-10-26T05:06:07.203Z,100630.72
2022-10-26T05:11:10.029Z,100627.63
2022-10-26T05:16:12.677Z,100620.84
2022-10-26T05:21:19.791Z,100611.13
2022-10-26T05:26:23.883Z,100611.38
2022-10-26T05:31:26.712Z,100615.31
2022-10-26T05:36:29.458Z,100611.06
2022-10-26T05:41:32.197Z,100610.75
2022-10-26T05:46:34.866Z,100609.22
2022-10-26T05:51:37.675Z,100606.63
2022-10-26T05:56:41.530Z,100612.13
2022-10-26T06:02:16.044Z,100619.47
2022-10-26T06:07:22.961Z,100612.41
2022-10-26T06:12:27.668Z,100612.69
2022-10-26T06:17:54.312Z,100608.09
2022-10-26T06:23:04.174Z,100606.50
2022-10-26T06:28:57.731Z,100575.50
2022-10-26T06:34:01.964Z,100588.81
2022-10-26T06:39:11.078Z,100594.41
2022-10-26T06:44:22.968Z,100592.72
2022-10-26T06:49:32.115Z,100561.69
2022-10-26T06:54:52.659Z,100583.31
2022-10-26T07:00:01.106Z,100587.03
2022-10-26T07:05:06.657Z,100560.81
2022-10-26T07:10:11.038Z,100572.59
2022-10-26T07:15:14.682Z,100541.06
2022-10-26T07:20:19.964Z,100571.34
2022-10-26T07:25:23.053Z,100565.47
2022-10-26T07:30:29.975Z,100567.97
2022-10-26T07:35:34.552Z,100560.94
2022-10-26T07:40:38.426Z,100555.84
2022-10-26T07:45:41.092Z,100556.81
2022-10-26T07:50:43.836Z,100542.81
2022-10-26T07:55:56.648Z,100549.13
2022-10-26T08:01:08.468Z,100534.97
2022-10-26T08:06:11.328Z,100544.19
2022-10-26T08:11:14.111Z,100540.31
2022-10-26T08:16:17.971Z,100541.34
2022-10-26T08:21:30.373Z,100533.53
2022-10-26T08:26:38.850Z,100500.03
2022-10-26T08:31:41.681Z,100536.97
2022-10-26T08:36:44.413Z,100526.06
2022-10-26T08:41:48.401Z,100530.66
2022-10-26T08:46:55.824Z,100539.44
2022-10-26T08:52:02.615Z,100537.31
2022-10-26T08:57:17.005Z,100517.53
2022-10-26T09:02:20.010Z,100511.47
2022-10-26T09:07:36.485Z,100511.47
2022-10-26T09:12:57.165Z,100519.28
2022-10-26T09:18:24.905Z,100515.66
2022-10-26T09:23:32.485Z,100516.81
2022-10-26T09:28:37.389Z,100525.50
2022-10-26T09:33:40.682Z,100528.41
2022-10-26T09:39:03.930Z,100518.44
2022-10-26T09:44:27.562Z,100530.13
2022-10-26T09:49:54.427Z,100515.16
2022-10-26T09:54:57.118Z,100503.94
2022-10-26T09:59:59.935Z,100512.00
2022-10-26T10:05:03.364Z,100498.53
2022-10-26T10:10:20.691Z,100504.09
2022-10-26T10:15:25.585Z,100494.28
2022-10-26T10:20:32.620Z,100507.09
2022-10-26T10:25:37.591Z,100505.16
2022-10-26T10:31:39.991Z,100523.41
2022-10-26T10:36:42.713Z,100532.59
2022-10-26T10:41:45.984Z,100536.94
2022-10-26T10:46:48.793Z,100535.88
2022-10-26T10:51:51.991Z,100535.44
2022-10-26T10:57:15.149Z,100536.97
2022-10-26T11:02:34.945Z,100549.53
2022-10-26T11:07:48.285Z,100538.81
2022-10-26T11:12:55.716Z,100498.25
2022-10-26T11:18:14.659Z,100528.47
2022-10-26T11:23:21.392Z,100535.16
2022-10-26T11:28:35.164Z,100522.28
2022-10-26T11:33:42.872Z,100519.25
2022-10-26T11:38:57.305Z,100526.91
2022-10-26T11:44:17.646Z,100522.53
2022-10-26T11:49:24.788Z,100517.03
2022-10-26T11:54:48.016Z,100516.16
2022-10-26T11:59:54.114Z,100516.44
2022-10-26T12:05:22.981Z,100509.84
2022-10-26T12:10:32.635Z,100494.34
2022-10-26T12:16:02.924Z,100486.38
2022-10-26T12:21:08.786Z,100493.94
2022-10-26T12:26:23.611Z,100495.78
2022-10-26T12:31:31.830Z,100491.06
2022-10-26T12:36:56.717Z,100476.38
2022-10-26T12:42:08.521Z,100489.22
2022-10-26T12:47:26.601Z,100463.97
2022-10-26T12:52:32.340Z,100489.50
2022-10-26T12:57:44.210Z,100443.72
2022-10-26T13:02:55.832Z,100478.63
2022-10-26T13:08:07.789Z,100479.59
2022-10-26T13:13:22.769Z,100476.13
2022-10-26T13:18:25.845Z,100457.34
2022-10-26T13:23:30.121Z,100478.38
2022-10-26T13:28:38.987Z,100477.34
2022-10-26T13:33:42.779Z,100477.81
2022-10-26T13:38:47.529Z,100463.28
2022-10-26T13:43:51.514Z,100455.13
2022-10-26T13:49:00.367Z,100451.84
2022-10-26T13:54:35.550Z,100461.13
2022-10-26T13:59:41.853Z,100458.56
2022-10-26T14:04:49.344Z,100445.88
2022-10-26T14:09:53.912Z,100455.09
2022-10-26T14:15:06.782Z,100449.97
2022-10-26T14:20:19.407Z,100448.78
2022-10-26T14:25:41.628Z,100449.41
2022-10-26T14:30:45.559Z,100441.94
2022-10-26T14:35:48.665Z,100448.03
2022-10-26T14:40:52.736Z,100449.75
2022-10-26T14:45:57.294Z,100437.47
2022-10-26T14:51:19.787Z,100439.34
2022-10-26T14:56:38.573Z,100437.22
2022-10-26T15:02:04.315Z,100434.69
2022-10-26T15:07:12.826Z,100439.03
2022-10-26T15:12:38.955Z,100433.50
2022-10-26T15:17:48.467Z,100427.78
2022-10-26T15:22:56.306Z,100424.41
2022-10-26T15:28:19.138Z,100419.59
2022-10-26T15:33:22.483Z,100417.66
2022-10-26T15:38:28.595Z,100412.94
2022-10-26T15:43:32.590Z,100412.47
2022-10-26T15:48:36.507Z,100405.41
2022-10-26T15:53:39.102Z,100381.16
2022-10-26T15:58:41.793Z,100399.94
2022-10-26T16:03:44.859Z,100394.00
2022-10-26T16:08:52.338Z,100398.00
2022-10-26T16:13:57.088Z,100387.06
2022-10-26T16:19:25.349Z,100386.72
2022-10-26T16:24:25.198Z,100378.28
2022-10-26T16:29:27.969Z,100380.22
2022-10-26T16:34:30.610Z,100380.03
2022-10-26T16:39:33.319Z,100374.63
2022-10-26T16:44:36.875Z,100369.97
2022-10-26T16:49:43.602Z,100367.75
2022-10-26T16:54:46.289Z,100367.91
2022-10-26T16:59:48.962Z,100336.50
2022-10-26T17:04:51.699Z,100344.81
2022-10-26T17:09:54.471Z,100351.16
2022-10-26T17:14:59.246Z,100345.00
2022-10-26T17:20:02.167Z,100339.31
2022-10-26T17:25:05.961Z,100338.84
2022-10-26T17:30:09.030Z,100315.53
2022-10-26T17:35:11.702Z,100308.00
2022-10-26T17:40:14.534Z,100307.31
2022-10-26T17:45:17.248Z,100300.44
2022-10-26T17:50:20.039Z,100293.44
2022-10-26T17:55:22.742Z,100284.34
2022-10-26T18:00:25.455Z,100267.91
2022-10-26T18:05:31.874Z,100276.53
2022-10-26T18:10:37.811Z,100261.81
2022-10-26T18:15:41.056Z,100257.75
2022-10-26T18:20:43.688Z,100261.16
2022-10-26T18:25:46.677Z,100268.19
2022-10-26T18:30:49.376Z,100256.31
2022-10-26T18:35:52.313Z,100248.50
2022-10-26T18:40:55.182Z,100239.03
2022-10-26T18:46:09.289Z,100258.28
2022-10-26T18:51:13.950Z,100239.09
2022-10-26T18:56:18.669Z,100254.81
2022-10-26T19:01:24.366Z,100239.06
2022-10-26T19:06:31.491Z,100262.06
2022-10-26T19:11:34.461Z,100251.44
2022-10-26T19:16:45.902Z,100246.91
2022-10-26T19:21:50.421Z,100235.09
2022-10-26T19:26:54.429Z,100245.66
2022-10-26T19:31:57.105Z,100234.41
2022-10-26T19:36:59.789Z,100222.81
2022-10-26T19:42:02.545Z,100211.78
2022-10-26T19:47:05.549Z,100214.00
2022-10-26T19:52:08.231Z,100210.84
2022-10-26T19:57:10.904Z,100211.97
2022-10-26T20:02:13.560Z,100219.69
2022-10-26T20:07:17.503Z,100209.84
2022-10-26T20:12:20.151Z,100209.00
2022-10-26T20:17:27.541Z,100217.81
2022-10-26T20:22:31.112Z,100205.38
2022-10-26T20:27:33.849Z,100213.69
2022-10-26T20:32:36.611Z,100199.03
2022-10-26T20:37:39.509Z,100205.13
2022-10-26T20:42:42.890Z,100186.19
2022-10-26T20:47:45.859Z,100199.38
2022-10-26T20:52:52.144Z,100197.47
2022-10-26T20:58:21.714Z,100182.88
2022-10-26T21:03:24.381Z,100189.81
2022-10-26T21:08:27.026Z,100185.13
2022-10-26T21:13:30.085Z,100155.81
2022-10-26T21:18:33.663Z,100170.72
2022-10-26T21:23:38.058Z,100166.91
2022-10-26T21:28:42.379Z,100155.19
2022-10-26T21:33:46.553Z,100158.13
2022-10-26T21:38:49.275Z,100149.03
2022-10-26T21:44:03.209Z,100150.34
2022-10-26T21:49:11.747Z,100144.50
2022-10-26T21:54:14.409Z,100142.94
2022-10-26T21:59:17.056Z,100130.59
2022-10-26T22:04:19.869Z,100130.59
2022-10-26T22:09:22.568Z,100114.13
2022-10-26T22:14:25.208Z,100102.94
2022-10-26T22:19:27.936Z,100132.88
2022-10-26T22:24:30.686Z,100139.13
2022-10-26T22:29:33.406Z,100133.91
2022-10-26T22:34:36.100Z,100125.38
2022-10-26T22:39:38.919Z,100126.81
2022-10-26T22:44:41.564Z,100129.22
2022-10-26T22:49:44.280Z,100120.75
2022-10-26T22:54:46.908Z,100124.53
2022-10-26T22:59:49.539Z,100132.97
2022-10-26T23:04:52.256Z,100108.38
2022-10-26T23:09:54.851Z,100096.50
2022-10-26T23:14:57.585Z,100111.84
2022-10-26T23:20:00.220Z,100122.50
2022-10-26T23:25:02.904Z,100125.88
2022-10-26T23:30:06.528Z,100125.13
2022-10-26T23:35:09.495Z,100129.44
2022-10-26T23:40:12.385Z,100121.44
2022-10-26T23:45:15.217Z,100098.28
2022-10-26T23:50:18.072Z,100125.91
2022-10-26T23:55:20.758Z,100119.38
